Time;durP1;ratioP1;P1;durP2;ratioP2;P2;SDS_P1;SDS_P2;PMS_P1;PMS_P2;Temp;Humidity;BMP_temperature;BMP_pressure;BME280_temperature;BME280_humidity;BME280_pressure;Samples;Min_cycle;Max_cycle;Signal;HPM_P1;HPM_P2
2021/01/06 00:00:52;;;;;;;9.00;0.68;;;23.20;99.90;;;;;;5086506;28;20044;-74
2021/01/06 00:03:22;;;;;;;5.90;0.75;;;23.20;99.90;;;;;;5091550;28;20039;-74
2021/01/06 00:05:59;;;;;;;4.63;0.70;;;23.10;99.90;;;;;;5079860;22;20055;-75
2021/01/06 00:08:27;;;;;;;7.10;1.17;;;22.90;99.90;;;;;;5075249;22;20053;-75
2021/01/06 00:10:57;;;;;;;6.60;0.75;;;22.70;99.90;;;;;;5086997;28;20028;-76
2021/01/06 00:13:25;;;;;;;5.15;0.95;;;22.60;99.90;;;;;;5091620;22;20079;-75
2021/01/06 00:15:53;;;;;;;7.97;0.70;;;22.50;99.90;;;;;;5059548;28;20040;-75
2021/01/06 00:18:22;;;;;;;5.13;0.65;;;22.40;99.90;;;;;;5066525;28;20398;-75
2021/01/06 00:20:50;;;;;;;4.05;1.30;;;22.50;99.90;;;;;;5071466;22;20103;-76
2021/01/06 00:23:18;;;;;;;6.43;1.20;;;22.60;99.90;;;;;;5089279;28;20134;-76
2021/01/06 00:25:45;;;;;;;5.43;0.65;;;22.40;99.90;;;;;;5091043;28;20020;-75
2021/01/06 00:28:15;;;;;;;6.03;1.20;;;22.30;99.90;;;;;;5089039;28;20028;-74
2021/01/06 00:30:48;;;;;;;4.15;0.75;;;22.20;99.90;;;;;;5067468;28;21492;-73
2021/01/06 00:33:23;;;;;;;7.13;0.50;;;22.10;99.90;;;;;;5061326;28;20456;-75
2021/01/06 00:35:56;;;;;;;3.40;0.88;;;22.10;99.90;;;;;;5058958;28;20056;-73
2021/01/06 00:38:25;;;;;;;9.13;0.80;;;22.10;99.90;;;;;;5066710;28;20032;-74
2021/01/06 00:40:53;;;;;;;6.13;0.80;;;22.00;99.90;;;;;;5044849;28;20452;-73
2021/01/06 00:43:20;;;;;;;5.43;0.60;;;21.90;99.90;;;;;;5062574;28;20031;-73
2021/01/06 00:45:47;;;;;;;6.85;0.80;;;21.90;99.90;;;;;;5064916;28;20024;-73
2021/01/06 00:48:15;;;;;;;2.90;0.40;;;21.80;99.90;;;;;;5063018;28;20398;-75
2021/01/06 00:50:43;;;;;;;9.98;1.30;;;21.60;99.90;;;;;;5080509;22;20762;-75
2021/01/06 00:53:25;;;;;;;7.18;0.98;;;21.60;99.90;;;;;;5092577;28;20081;-76
2021/01/06 00:55:53;;;;;;;6.22;0.93;;;21.70;99.90;;;;;;5091015;28;20023;-77
2021/01/06 00:58:20;;;;;;;5.82;0.60;;;21.60;99.90;;;;;;5094849;28;20096;-77
2021/01/06 01:00:48;;;;;;;6.95;1.27;;;21.70;99.90;;;;;;5065819;28;20493;-77
2021/01/06 01:03:15;;;;;;;7.78;0.75;;;21.70;99.90;;;;;;5087196;28;20032;-77
2021/01/06 01:05:45;;;;;;;9.43;0.88;;;21.80;99.90;;;;;;5081827;28;20388;-77
2021/01/06 01:08:13;;;;;;;8.05;1.08;;;22.10;99.90;;;;;;5056787;28;20104;-77
2021/01/06 01:10:48;;;;;;;2.53;0.60;;;22.30;99.90;;;;;;5070273;28;20095;-77
2021/01/06 01:13:19;;;;;;;6.32;0.60;;;22.60;99.90;;;;;;5068731;28;20028;-76
2021/01/06 01:15:48;;;;;;;7.70;0.98;;;22.50;99.90;;;;;;5070410;28;20048;-76
2021/01/06 01:18:19;;;;;;;6.85;1.00;;;22.30;99.90;;;;;;5074437;28;20029;-78
2021/01/06 01:21:06;;;;;;;5.68;1.20;;;22.40;99.90;;;;;;5070812;28;20032;-77
2021/01/06 01:23:34;;;;;;;14.23;1.50;;;22.40;99.90;;;;;;5081168;22;20067;-77
2021/01/06 01:26:01;;;;;;;8.85;1.05;;;22.50;99.90;;;;;;5070469;28;20066;-77
2021/01/06 01:28:29;;;;;;;5.43;0.85;;;22.50;99.90;;;;;;5068202;28;20021;-78
2021/01/06 01:30:57;;;;;;;5.93;1.02;;;22.40;99.90;;;;;;5050590;28;20132;-78
2021/01/06 01:33:26;;;;;;;8.55;1.35;;;22.30;99.90;;;;;;5052830;28;20032;-76
2021/01/06 01:35:53;;;;;;;4.63;0.85;;;22.10;99.90;;;;;;5047535;28;20046;-76
2021/01/06 01:38:24;;;;;;;4.25;0.80;;;22.10;99.90;;;;;;5053603;28;20037;-77
2021/01/06 01:41:06;;;;;;;10.13;1.27;;;22.10;99.90;;;;;;5049987;28;20489;-76
2021/01/06 01:43:34;;;;;;;7.18;1.15;;;22.30;99.90;;;;;;5053608;28;20116;-76
2021/01/06 01:46:01;;;;;;;10.32;1.58;;;22.50;99.90;;;;;;5047572;28;20029;-77
2021/01/06 01:48:45;;;;;;;7.72;1.45;;;22.60;99.90;;;;;;5051300;28;20087;-76
2021/01/06 01:51:30;;;;;;;8.50;2.10;;;22.70;99.90;;;;;;5049964;28;20040;-76
2021/01/06 01:54:06;;;;;;;7.20;0.88;;;22.60;99.90;;;;;;5053717;28;20048;-77
2021/01/06 01:57:02;;;;;;;14.80;2.60;;;22.60;99.90;;;;;;5048436;28;20024;-76
2021/01/06 01:59:45;;;;;;;8.85;1.17;;;22.60;99.90;;;;;;5053346;28;20025;-75
2021/01/06 02:02:27;;;;;;;9.23;1.60;;;22.60;99.90;;;;;;5052536;28;20044;-75
2021/01/06 02:04:58;;;;;;;11.15;1.65;;;22.60;99.90;;;;;;5049745;28;20053;-76
2021/01/06 02:07:39;;;;;;;8.02;0.90;;;22.80;99.90;;;;;;5029921;28;20025;-75
2021/01/06 02:10:29;;;;;;;10.80;1.38;;;23.00;99.90;;;;;;5033738;28;20036;-76
2021/01/06 02:13:00;;;;;;;8.73;1.27;;;23.60;99.90;;;;;;5050417;28;20037;-77
2021/01/06 02:15:48;;;;;;;10.13;1.20;;;24.20;99.90;;;;;;5047233;28;20024;-76
2021/01/06 02:18:17;;;;;;;8.05;1.58;;;24.50;99.90;;;;;;5049556;28;20074;-80
2021/01/06 02:21:07;;;;;;;8.00;1.92;;;24.50;99.90;;;;;;5030373;28;20066;-79
2021/01/06 02:23:35;;;;;;;8.13;1.20;;;24.10;99.90;;;;;;5031942;28;22863;-77
2021/01/06 02:26:03;;;;;;;10.35;1.38;;;24.10;99.90;;;;;;5083994;22;20048;-77
2021/01/06 02:28:31;;;;;;;11.18;0.85;;;24.40;99.90;;;;;;5079099;22;20052;-80
2021/01/06 02:30:58;;;;;;;8.60;0.80;;;24.30;99.90;;;;;;5049045;28;20056;-77
2021/01/06 02:33:26;;;;;;;7.35;1.55;;;24.20;99.90;;;;;;5071411;22;20052;-77
2021/01/06 02:35:54;;;;;;;7.75;1.33;;;23.90;99.90;;;;;;5068817;28;20051;-77
2021/01/06 02:38:23;;;;;;;10.43;1.83;;;24.20;99.90;;;;;;5068187;28;20024;-77
2021/01/06 02:40:55;;;;;;;8.88;1.83;;;24.80;99.90;;;;;;5059684;22;20041;-76
2021/01/06 02:43:23;;;;;;;12.82;1.98;;;25.30;99.90;;;;;;5067580;28;20033;-76
2021/01/06 02:45:51;;;;;;;14.35;1.42;;;25.40;99.90;;;;;;5066387;28;20020;-77
2021/01/06 02:48:18;;;;;;;9.55;1.50;;;25.40;99.90;;;;;;5071448;28;20482;-82
2021/01/06 02:50:50;;;;;;;8.48;1.20;;;25.80;99.90;;;;;;5054419;28;20104;-77
2021/01/06 02:53:26;;;;;;;11.93;1.38;;;26.00;99.90;;;;;;5051445;28;20040;-76
2021/01/06 02:55:53;;;;;;;10.68;1.40;;;25.20;99.90;;;;;;5047953;28;20032;-77
2021/01/06 02:58:24;;;;;;;12.40;1.55;;;24.80;99.90;;;;;;5011116;22;1967690;-78
2021/01/06 03:00:53;;;;;;;13.05;1.50;;;25.00;99.90;;;;;;5066141;28;20478;-81
2021/01/06 03:03:26;;;;;;;8.25;1.40;;;25.40;99.90;;;;;;5072445;28;20036;-80
2021/01/06 03:06:11;;;;;;;10.27;1.63;;;24.90;99.90;;;;;;5047116;28;20056;-77
2021/01/06 03:08:39;;;;;;;15.18;2.08;;;25.00;99.90;;;;;;5072063;28;20032;-77
2021/01/06 03:11:07;;;;;;;10.05;1.65;;;24.60;99.90;;;;;;5046140;28;20112;-76
2021/01/06 03:13:35;;;;;;;11.38;2.03;;;24.40;99.90;;;;;;5066669;28;20119;-79
2021/01/06 03:16:03;;;;;;;6.45;1.42;;;24.50;99.90;;;;;;5060827;28;20021;-76
2021/01/06 03:18:31;;;;;;;9.85;1.48;;;24.20;99.90;;;;;;5068624;28;20023;-76
2021/01/06 03:21:05;;;;;;;10.95;1.60;;;24.00;99.90;;;;;;5061402;28;20048;-78
2021/01/06 03:23:32;;;;;;;7.10;1.33;;;24.50;99.90;;;;;;5059658;28;20035;-75
2021/01/06 03:26:04;;;;;;;7.65;0.90;;;24.20;99.90;;;;;;5066032;28;20025;-78
2021/01/06 03:28:35;;;;;;;6.63;0.75;;;24.00;99.90;;;;;;5066189;28;20066;-76
2021/01/06 03:31:05;;;;;;;7.93;1.02;;;23.90;99.90;;;;;;5083789;22;20390;-77
2021/01/06 03:33:43;;;;;;;5.38;1.40;;;24.50;99.90;;;;;;5041629;28;20428;-79
2021/01/06 03:36:16;;;;;;;9.15;1.23;;;24.90;99.90;;;;;;5035956;28;20391;-80
2021/01/06 03:39:08;;;;;;;8.45;1.17;;;25.00;99.90;;;;;;5038374;28;20031;-77
2021/01/06 03:41:36;;;;;;;11.70;2.00;;;24.80;99.90;;;;;;5036580;28;20059;-77
2021/01/06 03:44:08;;;;;;;10.68;2.40;;;25.10;99.90;;;;;;5043459;28;20106;-81
2021/01/06 03:46:57;;;;;;;11.20;2.35;;;25.50;99.90;;;;;;5039675;28;20055;-79
2021/01/06 03:49:49;;;;;;;17.58;2.33;;;25.00;99.90;;;;;;5042044;28;20068;-78
2021/01/06 03:53:06;;;;;;;7.90;1.40;;;24.70;99.90;;;;;;5040840;28;20034;-78
2021/01/06 03:55:53;;;;;;;10.32;1.80;;;24.30;99.90;;;;;;5023745;28;20076;-79
2021/01/06 03:58:43;;;;;;;11.85;1.50;;;23.50;99.90;;;;;;5039206;28;20117;-81
2021/01/06 04:01:10;;;;;;;14.27;1.95;;;23.20;99.90;;;;;;5037438;28;20029;-78
2021/01/06 04:03:59;;;;;;;12.93;2.00;;;23.20;99.90;;;;;;5040065;28;20057;-79
2021/01/06 04:06:31;;;;;;;9.38;1.63;;;23.10;99.90;;;;;;5043755;28;20021;-78
2021/01/06 04:09:02;;;;;;;10.65;1.10;;;23.10;99.90;;;;;;5020923;28;20036;-80
2021/01/06 04:11:33;;;;;;;9.38;0.90;;;23.10;99.90;;;;;;5041478;28;20049;-83
2021/01/06 04:14:01;;;;;;;6.97;0.90;;;23.10;99.90;;;;;;5037801;28;20026;-79
2021/01/06 04:16:29;;;;;;;9.57;1.30;;;22.90;99.90;;;;;;5041556;28;20021;-79
2021/01/06 04:18:57;;;;;;;9.63;1.05;;;22.80;99.90;;;;;;5042917;28;20025;-80
2021/01/06 04:21:29;;;;;;;8.57;2.28;;;22.60;99.90;;;;;;5017389;28;20030;-78
2021/01/06 04:23:57;;;;;;;6.35;0.82;;;22.70;99.90;;;;;;5036598;28;20045;-78
2021/01/06 04:26:24;;;;;;;9.95;1.30;;;23.00;99.90;;;;;;5048890;28;20021;-78
2021/01/06 04:28:51;;;;;;;8.13;1.38;;;23.20;99.90;;;;;;5050528;28;20033;-79
2021/01/06 04:31:21;;;;;;;6.72;1.17;;;23.40;99.90;;;;;;5054301;22;20059;-78
2021/01/06 04:33:56;;;;;;;10.95;2.13;;;23.10;99.90;;;;;;5057513;23;20041;-77
2021/01/06 04:36:29;;;;;;;6.55;0.70;;;23.10;99.90;;;;;;5061718;22;20548;-78
2021/01/06 04:39:00;;;;;;;6.40;1.17;;;23.70;99.90;;;;;;5036530;22;20055;-79
2021/01/06 04:41:54;;;;;;;5.35;0.70;;;23.70;99.90;;;;;;5020455;28;20087;-80
2021/01/06 04:44:48;;;;;;;10.83;1.60;;;23.50;99.90;;;;;;5023285;28;20029;-79
2021/01/06 04:50:40;;;;;;;6.78;0.82;;;22.80;99.90;;;;;;5067280;22;20056;-80
2021/01/06 04:53:33;;;;;;;9.98;1.23;;;22.90;99.90;;;;;;5060224;28;20040;-79
2021/01/06 04:56:50;;;;;;;15.02;2.45;;;22.90;99.90;;;;;;5059049;28;20485;-81
2021/01/06 04:59:38;;;;;;;10.07;1.40;;;22.80;99.90;;;;;;4979051;28;20034;-80
2021/01/06 05:02:24;;;;;;;10.40;1.52;;;22.60;99.90;;;;;;5053123;28;20041;-79
2021/01/06 05:05:34;;;;;;;7.38;1.13;;;22.70;99.90;;;;;;5076726;22;20048;-80
2021/01/06 05:08:17;;;;;;;9.85;1.52;;;22.50;99.90;;;;;;5063879;28;20021;-80
2021/01/06 05:10:54;;;;;;;11.05;1.38;;;22.40;99.90;;;;;;5046403;28;20036;-81
2021/01/06 05:13:32;;;;;;;5.35;1.13;;;22.30;99.90;;;;;;5050529;28;20025;-82
2021/01/06 05:16:13;;;;;;;16.52;2.35;;;22.20;99.90;;;;;;5043263;28;20021;-80
2021/01/06 05:18:42;;;;;;;10.18;1.75;;;22.10;99.90;;;;;;5048290;28;20036;-78
2021/01/06 05:21:16;;;;;;;12.02;1.70;;;22.00;99.90;;;;;;5043028;28;20052;-79
2021/01/06 05:23:47;;;;;;;6.50;1.20;;;22.00;99.90;;;;;;5053508;28;20025;-80
2021/01/06 05:26:15;;;;;;;9.85;1.40;;;22.00;99.90;;;;;;5054112;28;20016;-82
2021/01/06 05:28:51;;;;;;;10.77;1.08;;;21.90;99.90;;;;;;5054268;28;20025;-84
2021/01/06 05:31:18;;;;;;;8.82;0.95;;;22.00;99.90;;;;;;5056669;28;20051;-80
2021/01/06 05:33:49;;;;;;;9.35;0.85;;;22.10;99.90;;;;;;5061596;28;20036;-81
2021/01/06 05:36:26;;;;;;;9.13;1.20;;;22.00;99.90;;;;;;5051695;28;20067;-81
2021/01/06 05:38:54;;;;;;;8.35;1.30;;;22.00;99.90;;;;;;5080978;23;20048;-82
2021/01/06 05:41:22;;;;;;;9.90;0.93;;;22.00;99.90;;;;;;5068936;28;20042;-83
2021/01/06 05:43:55;;;;;;;9.43;0.80;;;22.00;99.90;;;;;;5068507;28;20116;-82
2021/01/06 05:46:32;;;;;;;7.72;0.70;;;22.00;99.90;;;;;;5052712;28;20078;-81
2021/01/06 05:49:09;;;;;;;4.88;0.60;;;22.00;99.90;;;;;;5051106;28;20017;-79
2021/01/06 05:51:38;;;;;;;9.18;0.95;;;22.00;99.90;;;;;;5060852;28;20023;-79
2021/01/06 05:54:22;;;;;;;9.10;1.00;;;21.90;99.90;;;;;;5072976;28;20035;-78
2021/01/06 05:57:20;;;;;;;7.13;1.20;;;21.90;99.90;;;;;;5068996;28;20020;-80
2021/01/06 05:59:47;;;;;;;8.73;0.82;;;21.90;99.90;;;;;;5069892;28;20393;-81
2021/01/06 06:02:56;;;;;;;8.23;0.65;;;21.90;99.90;;;;;;5072636;28;20037;-81
2021/01/06 06:05:43;;;;;;;10.90;1.15;;;21.80;99.90;;;;;;5024217;28;20040;-83
2021/01/06 06:08:28;;;;;;;5.82;0.93;;;21.70;99.90;;;;;;5057366;28;20068;-83
2021/01/06 06:11:30;;;;;;;9.07;0.90;;;21.60;99.90;;;;;;5063588;28;20058;-81
2021/01/06 06:14:45;;;;;;;8.40;0.98;;;21.60;99.90;;;;;;5046920;28;20094;-80
2021/01/06 06:17:50;;;;;;;14.30;1.70;;;21.70;99.90;;;;;;5053262;28;20058;-80
2021/01/06 06:20:47;;;;;;;10.32;1.45;;;21.80;99.90;;;;;;4985206;28;20025;-80
2021/01/06 06:23:14;;;;;;;6.38;0.82;;;21.80;99.90;;;;;;5071211;28;20108;-81
2021/01/06 06:26:02;;;;;;;10.98;1.35;;;21.90;99.90;;;;;;5064905;28;20076;-80
2021/01/06 06:28:53;;;;;;;7.30;1.00;;;21.90;99.90;;;;;;5061694;28;20327;-79
2021/01/06 06:31:30;;;;;;;6.20;0.80;;;21.90;99.90;;;;;;5048449;28;20029;-79
2021/01/06 06:34:01;;;;;;;8.57;2.10;;;21.90;99.90;;;;;;5071275;28;20021;-86
2021/01/06 06:36:32;;;;;;;10.30;1.42;;;21.80;99.90;;;;;;5065945;28;20033;-76
2021/01/06 06:41:39;;;;;;;8.43;1.00;;;21.70;99.90;;;;;;5085112;22;20048;-79
2021/01/06 06:44:28;;;;;;;7.07;1.02;;;21.40;99.90;;;;;;5072526;28;20036;-81
2021/01/06 06:46:55;;;;;;;10.10;2.10;;;20.90;99.90;;;;;;5084964;22;20083;-80
2021/01/06 06:49:29;;;;;;;11.40;1.40;;;20.80;99.90;;;;;;5072565;28;20020;-79
2021/01/06 06:52:20;;;;;;;11.07;1.48;;;20.90;99.90;;;;;;5028540;28;20033;-81
2021/01/06 06:55:23;;;;;;;11.88;1.50;;;20.90;99.90;;;;;;5062367;22;20547;-86
2021/01/06 06:58:18;;;;;;;13.45;2.03;;;21.00;99.90;;;;;;5010431;28;20057;-79
2021/01/06 07:00:45;;;;;;;;;;;21.00;99.90;;;;;;5018901;28;20589;-79
2021/01/06 07:03:13;;;;;;;9.02;0.70;;;21.10;99.90;;;;;;5005014;28;19923;-81
2021/01/06 07:05:48;;;;;;;11.00;0.70;;;21.20;99.90;;;;;;5006594;28;20033;-82
2021/01/06 07:08:41;;;;;;;11.90;1.83;;;21.30;99.90;;;;;;5004923;28;20140;-84
2021/01/06 07:13:43;;;;;;;13.07;1.08;;;21.40;99.90;;;;;;5048790;23;20048;-79
2021/01/06 07:16:21;;;;;;;8.65;1.10;;;21.30;99.90;;;;;;5031433;28;20070;-85
2021/01/06 07:18:52;;;;;;;11.18;1.10;;;21.30;99.90;;;;;;5013187;28;20857;-79
2021/01/06 07:21:34;;;;;;;9.25;1.23;;;21.20;99.90;;;;;;5013574;28;20456;-81
2021/01/06 07:24:07;;;;;;;8.10;1.58;;;21.20;99.90;;;;;;5033233;28;20025;-84
2021/01/06 07:26:43;;;;;;;6.97;1.00;;;21.20;99.90;;;;;;5013547;28;20163;-82
2021/01/06 07:29:13;;;;;;;11.75;1.95;;;21.30;99.90;;;;;;5033144;28;20029;-82
2021/01/06 07:31:46;;;;;;;12.93;1.42;;;21.30;99.90;;;;;;5015697;28;20036;-81
2021/01/06 07:34:22;;;;;;;10.68;1.42;;;21.30;99.90;;;;;;5022066;28;20044;-80
2021/01/06 07:37:02;;;;;;;7.00;1.38;;;21.30;99.90;;;;;;5018409;28;20045;-80
2021/01/06 07:39:35;;;;;;;7.93;0.95;;;21.40;99.90;;;;;;5015659;28;20105;-81
2021/01/06 07:42:31;;;;;;;7.65;1.55;;;21.40;99.90;;;;;;5034181;28;20090;-79
2021/01/06 07:45:24;;;;;;;9.07;1.02;;;21.30;99.90;;;;;;5051916;22;20565;-80
2021/01/06 07:48:18;;;;;;;11.48;1.38;;;21.30;99.90;;;;;;5023018;28;20072;-79
2021/01/06 07:51:11;;;;;;;15.63;1.08;;;21.30;99.90;;;;;;5046852;28;20024;-78
2021/01/06 07:53:47;;;;;;;4.65;0.73;;;21.20;99.90;;;;;;5049085;28;21177;-79
2021/01/06 07:56:33;;;;;;;8.43;1.05;;;21.20;99.90;;;;;;5048858;28;20082;-81
2021/01/06 07:59:03;;;;;;;9.77;1.27;;;21.20;99.90;;;;;;5048493;28;20488;-80
2021/01/06 08:01:46;;;;;;;7.28;1.33;;;21.20;99.90;;;;;;5048504;28;20028;-81
2021/01/06 08:04:29;;;;;;;8.00;1.50;;;21.30;99.90;;;;;;5049267;28;20032;-81
2021/01/06 08:07:08;;;;;;;6.85;1.00;;;21.20;99.90;;;;;;5032460;28;20044;-80
2021/01/06 08:09:41;;;;;;;10.70;1.23;;;21.20;99.90;;;;;;5049025;28;20143;-80
2021/01/06 08:12:20;;;;;;;14.15;1.50;;;21.20;99.90;;;;;;5049693;28;20040;-81
2021/01/06 08:14:48;;;;;;;9.60;1.15;;;21.20;99.90;;;;;;5048817;28;20025;-82
2021/01/06 08:17:44;;;;;;;7.80;1.45;;;21.20;99.90;;;;;;5047519;28;20032;-80
2021/01/06 08:20:19;;;;;;;10.68;1.65;;;21.20;99.90;;;;;;5015677;28;20150;-82
2021/01/06 08:22:53;;;;;;;;;;;21.10;99.90;;;;;;5049859;28;21129;-79
2021/01/06 08:25:26;;;;;;;12.82;1.23;;;21.10;99.90;;;;;;5049272;28;19924;-80
2021/01/06 08:27:56;;;;;;;9.05;1.73;;;21.20;99.90;;;;;;5053803;28;20036;-82
2021/01/06 08:30:29;;;;;;;11.02;1.30;;;21.10;99.90;;;;;;5050061;28;20028;-80
2021/01/06 08:33:09;;;;;;;9.18;1.33;;;21.10;99.90;;;;;;5049283;28;20119;-80
2021/01/06 08:35:45;;;;;;;6.20;0.93;;;21.10;99.90;;;;;;5032009;28;20028;-80
2021/01/06 08:38:30;;;;;;;6.28;1.35;;;21.00;99.90;;;;;;5031418;28;20033;-81
2021/01/06 08:41:22;;;;;;;5.85;1.02;;;21.00;99.90;;;;;;5045359;28;20501;-81
2021/01/06 08:43:50;;;;;;;11.60;1.40;;;21.00;99.90;;;;;;5033023;28;20569;-79
2021/01/06 08:48:44;;;;;;;9.70;1.17;;;21.00;99.90;;;;;;5059972;22;20044;-82
2021/01/06 08:51:13;;;;;;;8.05;0.85;;;20.90;99.90;;;;;;5031392;28;20032;-80
2021/01/06 08:53:45;;;;;;;11.27;1.58;;;21.00;99.90;;;;;;5036337;22;20055;-78
2021/01/06 08:56:25;;;;;;;16.38;1.50;;;21.00;99.90;;;;;;5046832;28;20207;-78
2021/01/06 08:58:56;;;;;;;8.35;1.50;;;21.00;99.90;;;;;;5048829;28;20059;-78
2021/01/06 09:01:42;;;;;;;5.90;0.55;;;21.00;99.90;;;;;;5052993;28;20028;-80
2021/01/06 09:04:45;;;;;;;11.25;1.25;;;20.90;99.90;;;;;;5024670;22;20065;-79
2021/01/06 09:07:18;;;;;;;4.65;0.90;;;20.80;99.90;;;;;;4953316;28;20736;-80
2021/01/06 09:10:11;;;;;;;8.95;1.17;;;20.80;99.90;;;;;;5020609;28;20071;-78
2021/01/06 09:13:04;;;;;;;9.45;1.55;;;20.80;99.90;;;;;;5020255;28;21044;-80
2021/01/06 09:15:51;;;;;;;5.18;1.25;;;20.80;99.90;;;;;;5030244;28;20032;-82
2021/01/06 09:21:16;;;;;;;6.53;0.80;;;20.80;99.90;;;;;;5030992;22;20056;-78
2021/01/06 09:23:50;;;;;;;8.20;1.25;;;20.80;99.90;;;;;;5023861;28;20127;-78
2021/01/06 09:26:24;;;;;;;9.13;1.15;;;20.80;99.90;;;;;;5045682;28;20040;-81
2021/01/06 09:29:17;;;;;;;6.70;1.15;;;20.80;99.90;;;;;;5037140;28;20116;-78
2021/01/06 09:31:57;;;;;;;7.18;0.77;;;20.70;99.90;;;;;;5024593;28;20035;-78
2021/01/06 09:34:49;;;;;;;5.78;0.68;;;20.70;99.90;;;;;;5007370;28;20199;-82
2021/01/06 09:37:34;;;;;;;6.25;0.60;;;20.70;99.90;;;;;;5026370;28;20370;-79
2021/01/06 09:40:19;;;;;;;7.70;1.35;;;20.70;99.90;;;;;;5026973;28;20039;-80
2021/01/06 09:42:51;;;;;;;7.78;1.60;;;20.70;99.90;;;;;;5027322;28;20045;-78
2021/01/06 09:45:24;;;;;;;10.48;1.23;;;20.60;99.90;;;;;;5026885;28;20036;-79
2021/01/06 09:47:56;;;;;;;13.45;1.40;;;20.50;99.90;;;;;;5025824;28;20643;-78
2021/01/06 09:50:43;;;;;;;13.05;1.42;;;20.50;99.90;;;;;;5026551;28;20599;-79
2021/01/06 09:53:15;;;;;;;10.88;1.67;;;20.40;99.90;;;;;;5036395;22;20123;-79
2021/01/06 09:55:48;;;;;;;10.55;2.05;;;20.40;99.90;;;;;;5014009;28;20025;-79
2021/01/06 09:58:38;;;;;;;9.77;1.70;;;20.40;99.90;;;;;;5010974;28;20575;-79
2021/01/06 10:01:32;;;;;;;15.55;1.48;;;20.40;99.90;;;;;;5006012;28;20436;-79
2021/01/06 10:04:14;;;;;;;8.00;1.25;;;20.50;99.90;;;;;;5019544;28;20041;-80
2021/01/06 10:06:57;;;;;;;11.55;1.52;;;20.40;99.90;;;;;;5005639;28;20044;-80
2021/01/06 10:09:30;;;;;;;7.80;0.88;;;20.50;99.90;;;;;;5005596;28;20029;-78
2021/01/06 10:12:11;;;;;;;11.73;0.93;;;20.50;99.90;;;;;;5005923;28;20033;-79
2021/01/06 10:15:01;;;;;;;6.32;1.00;;;20.50;99.90;;;;;;5006281;28;20471;-79
2021/01/06 10:17:36;;;;;;;6.72;1.23;;;20.50;99.90;;;;;;5004882;28;20041;-79
2021/01/06 10:20:21;;;;;;;10.07;1.65;;;20.50;99.90;;;;;;5003930;28;20041;-79
2021/01/06 10:22:58;;;;;;;6.60;0.98;;;20.40;99.90;;;;;;5005610;28;20477;-80
2021/01/06 10:26:26;;;;;;;6.35;0.90;;;20.40;99.90;;;;;;5005032;28;20113;-79
2021/01/06 10:28:54;;;;;;;11.27;0.82;;;20.40;99.90;;;;;;4931161;28;21309;-80
2021/01/06 10:31:25;;;;;;;5.43;0.50;;;20.40;99.90;;;;;;4931298;28;20045;-79
2021/01/06 10:34:08;;;;;;;5.97;0.50;;;20.40;99.90;;;;;;4980848;28;20045;-81
2021/01/06 10:37:21;;;;;;;7.80;1.00;;;20.40;99.90;;;;;;5005815;28;20037;-80
2021/01/06 10:39:55;;;;;;;8.20;0.60;;;20.40;99.90;;;;;;4924651;29;20047;-78
2021/01/06 10:42:22;;;;;;;7.68;2.00;;;20.40;99.90;;;;;;4924346;29;20090;-79
2021/01/06 10:45:33;;;;;;;7.72;1.23;;;20.50;99.90;;;;;;4971624;28;20041;-79
2021/01/06 10:48:02;;;;;;;7.78;1.45;;;20.50;99.90;;;;;;5004382;28;20029;-79
2021/01/06 10:50:29;;;;;;;8.00;1.48;;;20.30;99.90;;;;;;5005298;28;20723;-79
2021/01/06 10:52:59;;;;;;;8.07;0.90;;;20.30;99.90;;;;;;5012197;23;20204;-78
2021/01/06 10:58:30;;;;;;;10.35;1.35;;;20.20;99.90;;;;;;5054185;22;20061;-77
2021/01/06 11:01:09;;;;;;;11.13;2.53;;;20.20;99.90;;;;;;5036284;23;20109;-76
2021/01/06 11:03:54;;;;;;;7.45;1.02;;;20.20;99.90;;;;;;5064204;28;20032;-77
2021/01/06 11:06:45;;;;;;;13.82;2.55;;;20.20;99.90;;;;;;5061633;28;20025;-77
2021/01/06 11:09:41;;;;;;;12.13;1.73;;;19.80;99.90;;;;;;5072147;22;20035;-77
2021/01/06 11:12:26;;;;;;;19.58;1.38;;;19.40;99.90;;;;;;5044164;28;20180;-77
2021/01/06 11:15:24;;;;;;;16.88;1.67;;;19.30;99.90;;;;;;5027271;28;20037;-77
2021/01/06 11:18:18;;;;;;;8.15;1.42;;;19.20;99.90;;;;;;5040790;28;20051;-76
2021/01/06 11:21:08;;;;;;;10.57;1.65;;;19.10;99.90;;;;;;5040863;28;20117;-76
2021/01/06 11:23:42;;;;;;;8.48;1.58;;;19.10;99.90;;;;;;5042014;28;20037;-76
2021/01/06 11:26:30;;;;;;;7.75;1.17;;;19.10;99.90;;;;;;5054284;22;20040;-77
2021/01/06 11:29:25;;;;;;;8.10;1.33;;;19.10;99.90;;;;;;5031733;28;20111;-78
2021/01/06 11:32:01;;;;;;;9.60;1.63;;;19.20;99.90;;;;;;5051226;28;20028;-78
2021/01/06 11:34:41;;;;;;;5.45;0.75;;;19.10;99.90;;;;;;5052097;28;20028;-79
2021/01/06 11:37:33;;;;;;;7.35;1.13;;;19.10;99.90;;;;;;5045785;28;20021;-78
2021/01/06 11:40:01;;;;;;;9.27;0.80;;;19.20;99.90;;;;;;5039962;28;20047;-77
2021/01/06 11:42:56;;;;;;;8.15;0.98;;;19.20;99.90;;;;;;5034376;28;20020;-77
2021/01/06 11:45:29;;;;;;;6.55;1.20;;;19.20;99.90;;;;;;5050669;28;20024;-78
2021/01/06 11:48:01;;;;;;;11.75;0.75;;;19.20;99.90;;;;;;5046033;28;20590;-78
2021/01/06 11:50:45;;;;;;;8.88;0.60;;;19.30;99.90;;;;;;5046866;28;20108;-77
2021/01/06 11:53:31;;;;;;;5.88;0.52;;;19.30;99.90;;;;;;5050466;28;20033;-76
2021/01/06 11:56:17;;;;;;;6.65;1.83;;;19.30;99.90;;;;;;5042364;28;20029;-77
2021/01/06 12:01:53;;;;;;;6.95;0.88;;;19.40;99.90;;;;;;5066338;22;20048;-77
2021/01/06 12:04:40;;;;;;;11.50;1.67;;;19.20;99.90;;;;;;5051609;28;20607;-77
2021/01/06 12:07:25;;;;;;;6.85;1.00;;;19.00;99.90;;;;;;5060461;28;20047;-78
2021/01/06 12:10:09;;;;;;;11.35;1.20;;;18.90;99.90;;;;;;5047866;28;20063;-78
2021/01/06 12:13:12;;;;;;;9.50;1.67;;;18.90;99.90;;;;;;5067501;28;20077;-78
2021/01/06 12:16:07;;;;;;;15.02;1.50;;;18.90;99.90;;;;;;5064084;28;20269;-77
2021/01/06 12:18:54;;;;;;;9.38;1.05;;;19.00;99.90;;;;;;5064212;28;20028;-77
2021/01/06 12:21:37;;;;;;;9.90;1.17;;;19.10;99.90;;;;;;5043050;28;20044;-78
2021/01/06 12:24:18;;;;;;;7.82;1.20;;;19.10;99.90;;;;;;5068797;28;20025;-78
2021/01/06 12:26:55;;;;;;;9.45;0.90;;;19.10;99.90;;;;;;5064234;28;20127;-77
2021/01/06 12:29:27;;;;;;;7.30;0.70;;;19.10;99.90;;;;;;5053672;28;20413;-77
2021/01/06 12:32:01;;;;;;;6.45;0.98;;;19.20;99.90;;;;;;5058009;28;20127;-78
2021/01/06 12:34:36;;;;;;;5.30;1.58;;;19.30;99.90;;;;;;5065613;28;20038;-77
2021/01/06 12:37:20;;;;;;;4.95;0.70;;;19.20;99.90;;;;;;5061557;28;20554;-77
2021/01/06 12:40:16;;;;;;;7.13;1.08;;;19.30;99.90;;;;;;5065779;28;20028;-77
2021/01/06 12:42:43;;;;;;;7.75;0.50;;;19.30;99.90;;;;;;5068176;28;20067;-78
2021/01/06 12:45:16;;;;;;;5.25;0.88;;;19.30;99.90;;;;;;5058031;28;20029;-78
2021/01/06 12:48:11;;;;;;;5.80;0.90;;;19.30;99.90;;;;;;5070000;28;20089;-78
2021/01/06 12:50:43;;;;;;;;;;;19.40;99.90;;;;;;5064867;28;20048;-78
2021/01/06 12:53:33;;;;;;;6.40;1.00;;;19.40;99.90;;;;;;5053144;28;20012;-78
2021/01/06 12:56:06;;;;;;;11.50;1.17;;;19.40;99.90;;;;;;5057403;28;20044;-77
2021/01/06 12:58:46;;;;;;;7.90;0.90;;;19.40;99.90;;;;;;5060331;28;20468;-77
2021/01/06 13:01:35;;;;;;;6.32;0.90;;;19.40;99.90;;;;;;5073836;22;21173;-77
2021/01/06 13:04:08;;;;;;;9.60;1.20;;;19.30;99.90;;;;;;5054414;22;20056;-77
2021/01/06 13:06:55;;;;;;;3.75;0.57;;;19.40;99.90;;;;;;5053346;28;20086;-77
2021/01/06 13:09:38;;;;;;;8.55;1.15;;;19.50;99.90;;;;;;5062691;22;20079;-77
2021/01/06 13:12:11;;;;;;;7.70;1.00;;;19.50;99.90;;;;;;5045248;28;20037;-77
2021/01/06 13:14:54;;;;;;;7.67;1.17;;;19.50;99.90;;;;;;5045786;28;20017;-78
2021/01/06 13:17:32;;;;;;;7.43;0.90;;;19.50;99.90;;;;;;5065544;22;20053;-78
2021/01/06 13:20:20;;;;;;;7.80;1.20;;;19.40;99.90;;;;;;5043178;28;20036;-78
2021/01/06 13:22:56;;;;;;;5.45;0.77;;;19.40;99.90;;;;;;5030378;28;20022;-77
2021/01/06 13:25:26;;;;;;;12.07;2.20;;;19.40;99.90;;;;;;5021243;28;20739;-77
2021/01/06 13:27:57;;;;;;;9.15;1.15;;;19.40;99.90;;;;;;5030513;28;20025;-77
2021/01/06 13:30:44;;;;;;;8.32;1.42;;;19.40;99.90;;;;;;5025845;28;20029;-78
2021/01/06 13:33:25;;;;;;;7.07;0.88;;;19.40;99.90;;;;;;5042570;22;20088;-77
2021/01/06 13:35:59;;;;;;;9.93;0.98;;;19.30;99.90;;;;;;5022081;28;20029;-77
2021/01/06 13:38:26;;;;;;;8.50;1.77;;;19.40;99.90;;;;;;5047785;28;20021;-78
2021/01/06 13:40:57;;;;;;;6.63;1.10;;;19.30;99.90;;;;;;5027498;28;20032;-77
2021/01/06 13:43:31;;;;;;;9.75;1.33;;;19.40;99.90;;;;;;5031161;28;20029;-78
2021/01/06 13:46:29;;;;;;;9.30;0.95;;;19.40;99.90;;;;;;5029833;28;20071;-77
2021/01/06 13:49:28;;;;;;;10.18;1.02;;;19.40;99.90;;;;;;5025884;28;20617;-78
2021/01/06 13:52:23;;;;;;;7.10;0.95;;;18.90;99.90;;;;;;4974452;28;20050;-77
2021/01/06 13:54:53;;;;;;;7.03;0.57;;;18.50;99.90;;;;;;5029810;28;20025;-77
2021/01/06 13:57:29;;;;;;;12.55;0.88;;;18.30;99.90;;;;;;5026283;28;20102;-77
2021/01/06 14:00:26;;;;;;;9.48;1.58;;;18.30;99.90;;;;;;5029496;28;20030;-77
2021/01/06 14:03:03;;;;;;;9.77;0.98;;;18.30;99.90;;;;;;5029674;28;20021;-78